Time;durP1;ratioP1;P1;durP2;ratioP2;P2;SDS_P1;SDS_P2;PMS_P1;PMS_P2;Temp;Humidity;BMP_temperature;BMP_pressure;BME280_temperature;BME280_humidity;BME280_pressure;Samples;Min_cycle;Max_cycle;Signal;HPM_P1;HPM_P2
2022/07/15 00:01:58;0.00;0.00;0.62;0.00;0.00;0.62;3.07;1.50;;;25.80;27.60;;;;;;2230428;62;20624;-66
2022/07/15 00:04:43;0.00;0.00;0.62;0.00;0.00;0.62;3.13;1.73;;;25.70;27.60;;;;;;2230129;62;20395;-66
2022/07/15 00:07:28;0.00;0.00;0.62;0.00;0.00;0.62;4.67;1.83;;;25.70;27.70;;;;;;2229664;62;20369;-65
2022/07/15 00:10:13;0.00;0.00;0.62;0.00;0.00;0.62;5.83;1.77;;;25.70;27.80;;;;;;2229562;62;20385;-63
2022/07/15 00:13:02;0.00;0.00;0.62;0.00;0.00;0.62;2.57;1.50;;;25.70;27.90;;;;;;2229933;62;20401;-65
2022/07/15 00:15:47;0.00;0.00;0.62;0.00;0.00;0.62;3.63;2.13;;;25.70;27.90;;;;;;2230022;62;20619;-66
2022/07/15 00:18:32;0.00;0.00;0.62;0.00;0.00;0.62;4.20;1.70;;;25.70;28.00;;;;;;2229428;62;20373;-63
2022/07/15 00:21:17;0.00;0.00;0.62;0.00;0.00;0.62;2.53;1.70;;;25.70;28.00;;;;;;2229540;62;20385;-65
2022/07/15 00:24:03;0.00;0.00;0.62;0.00;0.00;0.62;2.83;1.53;;;25.70;28.60;;;;;;2230412;62;20365;-64
2022/07/15 00:26:48;0.00;0.00;0.62;0.00;0.00;0.62;4.07;1.70;;;25.60;28.00;;;;;;2229794;62;20612;-65
2022/07/15 00:29:35;0.00;0.00;0.62;0.00;0.00;0.62;2.83;1.77;;;25.50;28.00;;;;;;2229687;62;20372;-64
2022/07/15 00:32:19;0.00;0.00;0.62;0.00;0.00;0.62;4.63;1.93;;;25.50;28.10;;;;;;2229738;62;20637;-66
2022/07/15 00:35:05;0.00;0.00;0.62;0.00;0.00;0.62;6.43;2.00;;;25.50;28.10;;;;;;2229941;62;20369;-65
2022/07/15 00:37:51;0.00;0.00;0.62;0.00;0.00;0.62;6.53;1.83;;;25.50;28.10;;;;;;2229461;62;20364;-62
2022/07/15 00:40:40;0.00;0.00;0.62;0.00;0.00;0.62;2.20;1.30;;;25.50;28.20;;;;;;2229363;62;20616;-66
2022/07/15 00:43:25;0.00;0.00;0.62;0.00;0.00;0.62;3.50;1.47;;;25.40;28.20;;;;;;2232911;62;20575;-63
2022/07/15 00:46:20;0.00;0.00;0.62;0.00;0.00;0.62;3.07;1.63;;;25.40;28.20;;;;;;2234221;62;20773;-66
2022/07/15 00:49:09;0.00;0.00;0.62;0.00;0.00;0.62;2.97;1.73;;;25.40;28.20;;;;;;2233549;62;20477;-65
2022/07/15 00:51:57;0.00;0.00;0.62;0.00;0.00;0.62;3.17;1.90;;;25.40;28.20;;;;;;2233482;62;20633;-65
2022/07/15 00:54:43;0.00;0.00;0.62;0.00;0.00;0.62;3.60;1.53;;;25.30;28.20;;;;;;2233482;62;20585;-64
2022/07/15 00:57:30;0.00;0.00;0.62;0.00;0.00;0.62;5.10;1.57;;;25.30;28.30;;;;;;2233670;62;20444;-67
2022/07/15 01:00:15;0.00;0.00;0.62;0.00;0.00;0.62;4.90;1.93;;;25.20;28.30;;;;;;2233326;62;20399;-65
2022/07/15 01:03:02;0.00;0.00;0.62;0.00;0.00;0.62;4.60;1.80;;;25.20;28.30;;;;;;2233426;62;20413;-67
2022/07/15 01:05:49;0.00;0.00;0.62;0.00;0.00;0.62;2.90;1.37;;;25.20;28.30;;;;;;2233783;62;20405;-64
2022/07/15 01:08:34;0.00;0.00;0.62;0.00;0.00;0.62;4.90;1.60;;;25.10;28.30;;;;;;2233586;62;20412;-70
2022/07/15 01:11:18;0.00;0.00;0.62;0.00;0.00;0.62;4.53;1.50;;;25.10;28.40;;;;;;2236035;62;20388;-68
2022/07/15 01:14:04;0.00;0.00;0.62;0.00;0.00;0.62;5.90;1.83;;;25.00;28.50;;;;;;2233555;62;20493;-67
2022/07/15 01:16:49;0.00;0.00;0.62;0.00;0.00;0.62;6.90;1.80;;;25.00;28.60;;;;;;2233243;62;20368;-65
2022/07/15 01:19:38;0.00;0.00;0.62;0.00;0.00;0.62;2.60;1.40;;;24.90;28.60;;;;;;2233313;62;20408;-65
2022/07/15 01:22:25;0.00;0.00;0.62;0.00;0.00;0.62;2.40;1.23;;;24.90;28.70;;;;;;2233450;62;20409;-67
2022/07/15 01:25:11;0.00;0.00;0.62;0.00;0.00;0.62;3.10;1.57;;;24.90;28.70;;;;;;2235557;62;20474;-65
2022/07/15 01:27:56;0.00;0.00;0.62;0.00;0.00;0.62;2.47;1.10;;;24.90;28.80;;;;;;2235644;62;20364;-65
2022/07/15 01:30:43;0.00;0.00;0.62;0.00;0.00;0.62;2.73;1.37;;;24.90;28.80;;;;;;2236262;62;20740;-67
2022/07/15 01:33:32;0.00;0.00;0.62;0.00;0.00;0.62;2.93;1.37;;;24.90;28.80;;;;;;2235937;62;20391;-65
2022/07/15 01:36:17;0.00;0.00;0.62;0.00;0.00;0.62;2.90;1.67;;;25.00;28.80;;;;;;2233365;62;20369;-67
2022/07/15 01:39:10;0.00;0.00;0.62;0.00;0.00;0.62;4.63;1.90;;;25.00;28.90;;;;;;2230230;62;20397;-67
2022/07/15 01:41:56;0.00;0.00;0.62;0.00;0.00;0.62;3.80;2.03;;;25.00;28.90;;;;;;2232177;62;20419;-67
2022/07/15 01:44:42;0.00;0.00;0.62;0.00;0.00;0.62;3.60;1.60;;;25.00;28.90;;;;;;2233267;62;20885;-67
2022/07/15 01:47:28;0.00;0.00;0.62;0.00;0.00;0.62;5.03;1.70;;;25.00;28.90;;;;;;2235412;62;20415;-66
2022/07/15 01:50:14;0.00;0.00;0.62;0.00;0.00;0.62;3.03;1.30;;;25.00;28.90;;;;;;2235523;62;20417;-65
2022/07/15 01:53:17;0.00;0.00;0.62;0.00;0.00;0.62;3.13;1.70;;;24.90;28.90;;;;;;2233437;62;20392;-64
2022/07/15 01:56:04;0.00;0.00;0.62;0.00;0.00;0.62;6.50;1.30;;;24.90;28.90;;;;;;2236355;62;20360;-65
2022/07/15 01:58:51;0.00;0.00;0.62;0.00;0.00;0.62;4.40;1.70;;;24.90;28.90;;;;;;2235602;62;20393;-67
2022/07/15 02:01:37;0.00;0.00;0.62;0.00;0.00;0.62;4.30;1.83;;;24.90;28.90;;;;;;2232723;62;20421;-67
2022/07/15 02:04:27;0.00;0.00;0.62;0.00;0.00;0.62;5.30;1.80;;;24.90;29.00;;;;;;2233416;62;20388;-65
2022/07/15 02:07:12;0.00;0.00;0.62;0.00;0.00;0.62;4.77;1.80;;;24.80;29.00;;;;;;2233346;62;20405;-66
2022/07/15 02:09:58;0.00;0.00;0.62;0.00;0.00;0.62;3.90;2.20;;;24.70;29.00;;;;;;2235544;62;20412;-66
2022/07/15 02:12:44;0.00;0.00;0.62;0.00;0.00;0.62;3.73;1.90;;;24.70;29.10;;;;;;2235415;62;20424;-66
2022/07/15 02:15:30;0.00;0.00;0.62;0.00;0.00;0.62;4.53;1.53;;;24.70;29.20;;;;;;2233258;62;20490;-66
2022/07/15 02:18:20;0.00;0.00;0.62;0.00;0.00;0.62;3.30;1.77;;;24.70;29.30;;;;;;2233469;62;20363;-66
2022/07/15 02:21:05;0.00;0.00;0.62;0.00;0.00;0.62;3.13;1.30;;;24.60;29.30;;;;;;2235683;62;20399;-64
2022/07/15 02:23:50;0.00;0.00;0.62;0.00;0.00;0.62;4.63;2.13;;;24.50;29.30;;;;;;2235601;62;20360;-66
2022/07/15 02:26:35;0.00;0.00;0.62;0.00;0.00;0.62;3.43;1.70;;;24.50;29.30;;;;;;2235804;62;20412;-64
2022/07/15 02:29:23;0.00;0.00;0.62;0.00;0.00;0.62;4.60;1.67;;;24.50;29.40;;;;;;2235921;62;20712;-64
2022/07/15 02:32:08;0.00;0.00;0.62;0.00;0.00;0.62;3.10;1.57;;;24.50;29.50;;;;;;2233149;62;20739;-67
2022/07/15 02:34:54;0.00;0.00;0.62;0.00;0.00;0.62;3.10;1.70;;;24.50;30.00;;;;;;2235458;62;20364;-65
2022/07/15 02:37:41;0.00;0.00;0.62;0.00;0.00;0.62;2.20;1.50;;;24.40;29.60;;;;;;2235835;62;20416;-66
2022/07/15 02:40:27;0.00;0.00;0.62;0.00;0.00;0.62;3.43;1.70;;;24.40;29.60;;;;;;2230625;62;20423;-67
2022/07/15 02:43:15;0.00;0.00;0.62;0.00;0.00;0.62;4.70;2.40;;;24.30;29.60;;;;;;2235291;62;20648;-65
2022/07/15 02:46:04;0.00;0.00;0.62;0.00;0.00;0.62;3.20;1.80;;;24.30;29.60;;;;;;2235439;62;20768;-66
2022/07/15 02:48:51;0.00;0.00;0.62;0.00;0.00;0.62;4.37;1.77;;;24.30;29.60;;;;;;2232954;62;20368;-66
2022/07/15 02:51:36;0.00;0.00;0.62;0.00;0.00;0.62;6.40;2.13;;;24.30;29.60;;;;;;2235946;62;20424;-66
2022/07/15 02:54:21;0.00;0.00;0.62;0.00;0.00;0.62;2.90;1.30;;;24.30;29.60;;;;;;2233181;62;20753;-66
2022/07/15 02:57:07;0.00;0.00;0.62;0.00;0.00;0.62;4.47;1.67;;;24.20;29.60;;;;;;2232680;62;20588;-66
2022/07/15 02:59:52;0.00;0.00;0.62;0.00;0.00;0.62;2.60;1.53;;;24.20;29.50;;;;;;2235945;62;20371;-67
2022/07/15 03:02:39;0.00;0.00;0.62;0.00;0.00;0.62;3.90;2.23;;;24.20;29.50;;;;;;2233378;62;20387;-66
2022/07/15 03:05:27;0.00;0.00;0.62;0.00;0.00;0.62;2.43;1.53;;;24.20;29.50;;;;;;2235872;62;20494;-65
2022/07/15 03:08:13;0.00;0.00;0.62;0.00;0.00;0.62;3.03;1.67;;;24.20;29.50;;;;;;2233684;62;20360;-66
2022/07/15 03:10:59;0.00;0.00;0.62;0.00;0.00;0.62;3.37;1.60;;;24.10;29.50;;;;;;2236487;62;20405;-65
2022/07/15 03:13:44;0.00;0.00;0.62;0.00;0.00;0.62;4.93;2.00;;;24.10;29.50;;;;;;2236509;62;20485;-66
2022/07/15 03:16:29;0.00;0.00;0.62;0.00;0.00;0.62;3.50;1.63;;;24.10;29.50;;;;;;2233273;62;20424;-66
2022/07/15 03:19:15;0.00;0.00;0.62;0.00;0.00;0.62;2.50;1.67;;;24.10;29.50;;;;;;2233605;62;20397;-65
2022/07/15 03:22:04;0.00;0.00;0.62;0.00;0.00;0.62;3.23;1.50;;;24.10;29.50;;;;;;2236550;62;20615;-65
2022/07/15 03:24:51;0.00;0.00;0.62;0.00;0.00;0.62;3.40;1.77;;;24.10;29.50;;;;;;2236818;62;20404;-66
2022/07/15 03:27:36;0.00;0.00;0.62;0.00;0.00;0.62;2.30;1.53;;;24.00;29.40;;;;;;2236008;62;20365;-63
2022/07/15 03:30:23;0.00;0.00;0.62;0.00;0.00;0.62;2.53;1.57;;;24.00;29.40;;;;;;2236043;62;20384;-65
2022/07/15 03:33:08;0.00;0.00;0.62;0.00;0.00;0.62;2.67;1.80;;;24.00;29.40;;;;;;2236419;62;20407;-66
2022/07/15 03:35:54;0.00;0.00;0.62;0.00;0.00;0.62;6.97;1.87;;;24.00;29.50;;;;;;2234290;62;20372;-69
2022/07/15 03:38:40;0.00;0.00;0.62;0.00;0.00;0.62;3.37;1.70;;;24.00;29.50;;;;;;2236054;62;20376;-66
2022/07/15 03:41:25;0.00;0.00;0.62;0.00;0.00;0.62;3.90;1.90;;;24.00;29.40;;;;;;2233163;62;20396;-67
2022/07/15 03:44:10;0.00;0.00;0.62;0.00;0.00;0.62;2.93;1.77;;;24.00;29.50;;;;;;2236743;62;20400;-65
2022/07/15 03:46:55;0.00;0.00;0.62;0.00;0.00;0.62;4.27;1.77;;;23.90;29.40;;;;;;2234319;62;20500;-67
2022/07/15 03:49:41;0.00;0.00;0.62;0.00;0.00;0.62;4.43;2.23;;;23.90;29.50;;;;;;2233727;62;20792;-64
2022/07/15 03:52:27;0.00;0.00;0.62;0.00;0.00;0.62;3.90;1.80;;;23.90;29.60;;;;;;2233224;62;20388;-66
2022/07/15 03:55:12;0.00;0.00;0.62;0.00;0.00;0.62;3.37;1.70;;;23.90;29.60;;;;;;2236303;62;20724;-66
2022/07/15 03:57:57;0.00;0.00;0.62;0.00;0.00;0.62;2.70;1.83;;;23.80;29.70;;;;;;2233546;62;20360;-66
2022/07/15 04:00:42;0.00;0.00;0.62;0.00;0.00;0.62;3.50;1.60;;;23.80;29.70;;;;;;2233604;62;20388;-64
2022/07/15 04:03:27;0.00;0.00;0.62;0.00;0.00;0.62;4.70;2.20;;;23.70;29.70;;;;;;2233538;62;20404;-63
2022/07/15 04:06:12;0.00;0.00;0.62;0.00;0.00;0.62;4.70;2.27;;;23.70;29.70;;;;;;2236596;62;20838;-64
2022/07/15 04:08:58;0.00;0.00;0.62;0.00;0.00;0.62;3.17;2.10;;;23.70;29.80;;;;;;2233932;62;20765;-63
2022/07/15 04:11:43;0.00;0.00;0.62;0.00;0.00;0.62;5.13;1.97;;;23.70;29.80;;;;;;2235783;62;20380;-64
2022/07/15 04:14:28;0.00;0.00;0.62;0.00;0.00;0.62;6.00;2.20;;;23.60;29.80;;;;;;2233599;62;20624;-64
2022/07/15 04:17:13;0.00;0.00;0.62;0.00;0.00;0.62;4.10;2.00;;;23.60;29.80;;;;;;2235948;62;20396;-63
2022/07/15 04:19:59;0.00;0.00;0.62;0.00;0.00;0.62;3.30;2.23;;;23.60;29.90;;;;;;2236077;62;20406;-64
2022/07/15 04:22:46;0.00;0.00;0.62;0.00;0.00;0.62;4.03;1.60;;;23.50;29.80;;;;;;2235938;62;20577;-64
2022/07/15 04:25:33;0.00;0.00;0.62;0.00;0.00;0.62;3.93;1.67;;;23.50;29.80;;;;;;2233266;62;20617;-63
2022/07/15 04:28:18;0.00;0.00;0.62;0.00;0.00;0.62;4.73;2.30;;;23.50;29.80;;;;;;2234002;62;20826;-64
2022/07/15 04:31:04;0.00;0.00;0.62;0.00;0.00;0.62;5.20;2.10;;;23.50;29.90;;;;;;2233813;62;20431;-65
2022/07/15 04:34:00;0.00;0.00;0.62;0.00;0.00;0.62;5.43;1.83;;;23.40;29.80;;;;;;2235899;62;20388;-64
2022/07/15 04:36:45;0.00;0.00;0.62;0.00;0.00;0.62;2.97;1.80;;;23.40;29.80;;;;;;2232963;62;20364;-64
2022/07/15 04:39:31;0.00;0.00;0.62;0.00;0.00;0.62;6.60;2.30;;;23.40;29.80;;;;;;2233378;62;20770;-65
2022/07/15 04:42:18;0.00;0.00;0.62;0.00;0.00;0.62;5.10;2.23;;;23.40;29.90;;;;;;2233355;62;20396;-62
2022/07/15 04:45:05;0.00;0.00;0.62;0.00;0.00;0.62;4.17;2.40;;;23.30;29.90;;;;;;2229120;62;20393;-63
2022/07/15 04:47:49;0.00;0.00;0.62;0.00;0.00;0.62;4.37;2.00;;;23.30;30.00;;;;;;2229036;62;20373;-63
2022/07/15 04:50:45;0.00;0.00;0.62;0.00;0.00;0.62;6.73;1.90;;;23.20;30.00;;;;;;2229890;62;20674;-63
2022/07/15 04:53:30;0.00;0.00;0.62;0.00;0.00;0.62;5.33;2.20;;;23.20;30.10;;;;;;2229789;62;20393;-63
2022/07/15 04:56:16;0.00;0.00;0.62;0.00;0.00;0.62;4.40;2.23;;;23.20;30.20;;;;;;2229136;62;20415;-64
2022/07/15 04:59:03;0.00;0.00;0.62;0.00;0.00;0.62;4.40;1.47;;;23.10;30.30;;;;;;2231865;62;20369;-65
2022/07/15 05:01:48;0.00;0.00;0.62;0.00;0.00;0.62;8.37;1.83;;;23.10;30.40;;;;;;2229724;62;20661;-64
2022/07/15 05:04:41;0.00;0.00;0.62;0.00;0.00;0.62;3.23;1.80;;;23.10;30.50;;;;;;2229541;62;20393;-66
2022/07/15 05:07:28;0.00;0.00;0.62;0.00;0.00;0.62;5.50;1.80;;;23.10;30.50;;;;;;2229073;62;20410;-66
2022/07/15 05:10:14;0.00;0.00;0.62;0.00;0.00;0.62;3.17;1.57;;;23.00;30.50;;;;;;2229001;62;20416;-64
2022/07/15 05:13:05;0.00;0.00;0.62;0.00;0.00;0.62;3.50;2.27;;;23.00;30.70;;;;;;2229741;62;20526;-64
2022/07/15 05:15:52;0.00;0.00;0.62;0.00;0.00;0.62;3.60;1.90;;;23.00;30.80;;;;;;2229833;62;20401;-63
2022/07/15 05:18:40;0.00;0.00;0.62;0.00;0.00;0.62;3.80;1.50;;;22.90;30.80;;;;;;2229078;62;20376;-65
2022/07/15 05:21:25;0.00;0.00;0.62;0.00;0.00;0.62;4.33;1.73;;;23.00;30.90;;;;;;2229518;62;20458;-63
2022/07/15 05:24:10;0.00;0.00;0.62;0.00;0.00;0.62;3.53;2.20;;;22.90;30.90;;;;;;2229359;62;20414;-65
2022/07/15 05:26:58;0.00;0.00;0.62;0.00;0.00;0.62;4.10;2.00;;;22.90;31.00;;;;;;2232136;62;20373;-64
2022/07/15 05:29:48;0.00;0.00;0.62;0.00;0.00;0.62;4.87;1.93;;;22.90;31.10;;;;;;2228986;62;20361;-65
2022/07/15 05:32:36;0.00;0.00;0.62;0.00;0.00;0.62;3.87;1.87;;;22.90;31.20;;;;;;2228923;62;20389;-64
2022/07/15 05:35:26;0.00;0.00;0.62;0.00;0.00;0.62;5.53;2.00;;;22.90;31.30;;;;;;2229226;62;20450;-62
2022/07/15 05:38:12;0.00;0.00;0.62;0.00;0.00;0.62;3.83;1.83;;;22.90;31.30;;;;;;2229610;62;20459;-63
2022/07/15 05:40:57;0.00;0.00;0.62;0.00;0.00;0.62;5.77;1.77;;;22.80;31.30;;;;;;2229271;62;20389;-64
2022/07/15 05:43:43;0.00;0.00;0.62;0.00;0.00;0.62;4.00;2.03;;;22.90;31.40;;;;;;2229075;62;20422;-65
2022/07/15 05:46:28;0.00;0.00;0.62;0.00;0.00;0.62;5.63;2.23;;;22.90;31.40;;;;;;2231912;62;20373;-64
2022/07/15 05:49:21;0.00;0.00;0.62;0.00;0.00;0.62;7.83;2.67;;;22.80;31.40;;;;;;2229780;62;20406;-65
2022/07/15 05:52:10;0.00;0.00;0.62;0.00;0.00;0.62;6.67;2.30;;;22.90;31.60;;;;;;2229126;62;20378;-64
2022/07/15 05:54:54;0.00;0.00;0.62;0.00;0.00;0.62;7.20;1.80;;;22.90;31.70;;;;;;2229437;62;20656;-65
2022/07/15 05:57:40;0.00;0.00;0.62;0.00;0.00;0.62;4.00;2.57;;;22.80;31.50;;;;;;2228914;62;20597;-64
2022/07/15 06:00:25;0.00;0.00;0.62;0.00;0.00;0.62;5.27;2.20;;;22.90;31.70;;;;;;2229967;62;20388;-62
2022/07/15 06:03:10;0.00;0.00;0.62;0.00;0.00;0.62;6.57;1.87;;;22.80;31.50;;;;;;2229888;62;20369;-66
2022/07/15 06:06:02;0.00;0.00;0.62;0.00;0.00;0.62;6.40;2.33;;;22.90;31.60;;;;;;2228992;62;20418;-66
2022/07/15 06:08:47;0.00;0.00;0.62;0.00;0.00;0.62;3.63;2.10;;;22.90;31.60;;;;;;2229086;62;20386;-64
2022/07/15 06:11:33;0.00;0.00;0.62;0.00;0.00;0.62;4.67;1.90;;;22.90;31.70;;;;;;2230061;62;20642;-64
2022/07/15 06:14:21;0.00;0.00;0.62;0.00;0.00;0.62;5.63;2.03;;;22.90;31.70;;;;;;2228880;62;20384;-66
2022/07/15 06:17:06;0.00;0.00;0.62;0.00;0.00;0.62;3.97;2.10;;;22.90;31.70;;;;;;2228957;62;20422;-62
2022/07/15 06:19:50;0.00;0.00;0.62;0.00;0.00;0.62;5.57;2.17;;;22.90;31.70;;;;;;2228858;62;20369;-66
2022/07/15 06:22:38;0.00;0.00;0.62;0.00;0.00;0.62;6.00;2.27;;;22.90;31.80;;;;;;2229935;62;20397;-65
2022/07/15 06:25:23;0.00;0.00;0.62;0.00;0.00;0.62;5.53;1.90;;;22.90;31.90;;;;;;2226693;62;20737;-65
2022/07/15 06:28:09;0.00;0.00;0.62;0.00;0.00;0.62;9.73;2.10;;;22.90;31.90;;;;;;2228734;62;20369;-64
2022/07/15 06:30:54;0.00;0.00;0.62;0.00;0.00;0.62;6.17;1.87;;;22.90;32.00;;;;;;2229226;62;20468;-64
2022/07/15 06:33:39;0.00;0.00;0.62;0.00;0.00;0.62;3.10;1.60;;;22.90;32.00;;;;;;2230006;62;20404;-65
2022/07/15 06:36:24;0.00;0.00;0.62;0.00;0.00;0.62;3.03;1.20;;;22.90;32.00;;;;;;2229236;62;20487;-64
2022/07/15 06:39:11;0.00;0.00;0.62;0.00;0.00;0.62;3.23;1.60;;;22.90;32.00;;;;;;2229364;62;20786;-62
2022/07/15 06:41:55;0.00;0.00;0.62;0.00;0.00;0.62;4.00;2.27;;;22.90;32.00;;;;;;2229499;62;20670;-63
2022/07/15 06:44:41;0.00;0.00;0.62;0.00;0.00;0.62;3.83;1.73;;;22.90;31.90;;;;;;2229397;62;20446;-63
2022/07/15 06:47:28;0.00;0.00;0.62;0.00;0.00;0.62;3.57;1.30;;;22.90;31.90;;;;;;2538279;46;20361;-64
2022/07/15 06:50:16;0.00;0.00;0.62;0.00;0.00;0.62;3.40;1.90;;;23.00;32.00;;;;;;2226561;62;20517;-64
2022/07/15 06:53:03;0.00;0.00;0.62;0.00;0.00;0.62;3.00;1.60;;;23.00;31.90;;;;;;2232507;62;20381;-66
2022/07/15 06:55:50;0.00;0.00;0.62;0.00;0.00;0.62;5.20;1.63;;;23.00;31.70;;;;;;2230226;62;20554;-66
2022/07/15 06:58:35;0.00;0.00;0.62;0.00;0.00;0.62;5.93;1.83;;;23.10;31.70;;;;;;2229900;62;20365;-66
2022/07/15 07:01:20;0.00;0.00;0.62;0.00;0.00;0.62;3.70;1.53;;;23.10;31.70;;;;;;2230005;62;20389;-67
2022/07/15 07:04:05;0.00;0.00;0.62;0.00;0.00;0.62;4.30;1.20;;;23.10;31.60;;;;;;2232845;62;20353;-64
2022/07/15 07:06:50;0.00;0.00;0.62;0.00;0.00;0.62;2.63;1.10;;;23.10;31.50;;;;;;2232937;62;20632;-68
2022/07/15 07:09:36;0.00;0.00;0.62;0.00;0.00;0.62;2.53;1.60;;;23.20;31.50;;;;;;2227129;62;20373;-63
2022/07/15 07:12:22;0.00;0.00;0.62;0.00;0.00;0.62;6.17;1.97;;;23.20;31.50;;;;;;2232226;62;20369;-67
2022/07/15 07:15:09;0.00;0.00;0.62;0.00;0.00;0.62;5.10;1.83;;;23.20;31.60;;;;;;2230435;62;20366;-65
2022/07/15 07:17:54;0.00;0.00;0.62;0.00;0.00;0.62;5.90;1.90;;;23.20;31.50;;;;;;2230390;62;20737;-67
2022/07/15 07:20:43;0.00;0.00;0.62;0.00;0.00;0.62;4.37;1.50;;;23.20;31.50;;;;;;2229921;62;20631;-66
2022/07/15 07:23:28;0.00;0.00;0.62;0.00;0.00;0.62;5.60;1.77;;;23.20;31.40;;;;;;2230294;62;20574;-63
2022/07/15 07:26:15;0.00;0.00;0.62;0.00;0.00;0.62;5.37;1.80;;;23.20;31.30;;;;;;2230511;62;20365;-66
2022/07/15 07:29:01;0.00;0.00;0.62;0.00;0.00;0.62;3.27;1.13;;;23.30;31.40;;;;;;2230532;62;20372;-65
2022/07/15 07:31:46;0.00;0.00;0.62;0.00;0.00;0.62;3.43;1.30;;;23.30;31.30;;;;;;2230123;62;20408;-65
2022/07/15 07:34:32;0.00;0.00;0.62;0.00;0.00;0.62;3.47;1.40;;;23.30;31.20;;;;;;2229887;62;20481;-68
2022/07/15 07:37:16;0.00;0.00;0.62;0.00;0.00;0.62;4.00;1.47;;;23.30;31.10;;;;;;2230126;62;20365;-68
2022/07/15 07:40:01;0.00;0.00;0.62;0.00;0.00;0.62;3.13;1.30;;;23.40;31.10;;;;;;2230249;62;20414;-69
2022/07/15 07:42:46;0.00;0.00;0.62;0.00;0.00;0.62;3.03;1.30;;;23.40;31.10;;;;;;2232265;62;20377;-67
2022/07/15 07:45:36;0.00;0.00;0.62;0.00;0.00;0.62;3.37;1.40;;;23.40;30.90;;;;;;2230220;62;20389;-67
2022/07/15 07:48:24;0.00;0.00;0.62;0.00;0.00;0.62;3.67;1.03;;;23.40;30.80;;;;;;2230229;62;20725;-67
2022/07/15 07:51:09;0.00;0.00;0.62;0.00;0.00;0.62;2.10;1.30;;;23.40;30.70;;;;;;2227616;62;20392;-67
2022/07/15 07:53:54;0.00;0.00;0.62;0.00;0.00;0.62;3.00;1.10;;;23.50;30.70;;;;;;2229811;62;20434;-68
2022/07/15 07:56:38;0.00;0.00;0.62;0.00;0.00;0.62;3.90;1.30;;;23.50;30.60;;;;;;2229667;62;20449;-70
2022/07/15 07:59:23;0.00;0.00;0.62;0.00;0.00;0.62;2.07;1.00;;;23.50;30.50;;;;;;2229996;62;20753;-66
2022/07/15 08:02:09;0.00;0.00;0.62;0.00;0.00;0.62;3.63;1.27;;;23.50;30.40;;;;;;2229916;62;20521;-67
2022/07/15 08:04:53;0.00;0.00;0.62;0.00;0.00;0.62;3.40;1.17;;;23.50;30.20;;;;;;2459238;54;20369;-65
2022/07/15 08:07:38;0.00;0.00;0.62;0.00;0.00;0.62;2.43;1.17;;;23.60;30.20;;;;;;2229985;62;20422;-62
2022/07/15 08:10:23;0.00;0.00;0.62;0.00;0.00;0.62;2.57;1.13;;;23.60;30.20;;;;;;2230408;62;20389;-63
2022/07/15 08:13:08;0.00;0.00;0.62;0.00;0.00;0.62;4.63;1.00;;;23.60;30.20;;;;;;2230105;62;20467;-62
2022/07/15 08:15:53;0.00;0.00;0.62;0.00;0.00;0.62;3.80;1.40;;;23.60;30.00;;;;;;2230047;62;20402;-64
2022/07/15 08:18:40;0.00;0.00;0.62;0.00;0.00;0.62;2.27;1.03;;;23.70;30.00;;;;;;2229696;62;20349;-64
2022/07/15 08:21:25;0.00;0.00;0.62;0.00;0.00;0.62;2.40;1.20;;;23.70;30.00;;;;;;2230220;62;20396;-64
2022/07/15 08:24:12;0.00;0.00;0.62;0.00;0.00;0.62;3.03;1.10;;;23.70;29.90;;;;;;2230401;62;20377;-65
2022/07/15 08:26:56;0.00;0.00;0.62;0.00;0.00;0.62;2.73;1.20;;;23.70;29.90;;;;;;2229670;62;20468;-65
2022/07/15 08:29:41;0.00;0.00;0.62;0.00;0.00;0.62;3.77;1.70;;;23.80;29.80;;;;;;2229888;62;20730;-69
2022/07/15 08:32:26;0.00;0.00;0.62;0.00;0.00;0.62;2.73;1.00;;;23.80;29.60;;;;;;2230188;62;20372;-67
2022/07/15 08:35:12;0.00;0.00;0.62;0.00;0.00;0.62;1.80;1.10;;;23.80;29.50;;;;;;2229726;62;20589;-66
2022/07/15 08:37:57;0.00;0.00;0.62;0.00;0.00;0.62;2.70;1.10;;;23.80;29.40;;;;;;2229918;62;20372;-66
2022/07/15 08:40:43;0.00;0.00;0.62;0.00;0.00;0.62;2.03;1.30;;;23.80;29.30;;;;;;2229694;62;20757;-64
2022/07/15 08:43:29;0.00;0.00;0.62;0.00;0.00;0.62;2.17;1.20;;;23.80;29.30;;;;;;2229967;62;20376;-63
2022/07/15 08:46:15;0.00;0.00;0.62;0.00;0.00;0.62;2.50;1.20;;;23.90;29.30;;;;;;2229998;62;20450;-64
2022/07/15 08:49:06;0.00;0.00;0.62;0.00;0.00;0.62;1.90;1.10;;;23.90;29.30;;;;;;2229388;62;20389;-63
2022/07/15 08:51:58;0.00;0.00;0.62;0.00;0.00;0.62;2.50;1.00;;;23.90;29.30;;;;;;2229911;62;20390;-66
2022/07/15 08:54:42;0.00;0.00;0.62;0.00;0.00;0.62;3.47;1.13;;;23.90;29.30;;;;;;2230318;62;20393;-62
2022/07/15 08:57:28;0.00;0.00;0.62;0.00;0.00;0.62;1.63;0.83;;;23.90;29.30;;;;;;2229521;62;20357;-62
2022/07/15 09:00:14;0.00;0.00;0.62;0.00;0.00;0.62;3.43;1.10;;;23.90;29.30;;;;;;2230070;62;20434;-62
2022/07/15 09:03:01;0.00;0.00;0.62;0.00;0.00;0.62;5.43;1.10;;;23.90;29.30;;;;;;2229507;62;20364;-62
2022/07/15 09:05:46;0.00;0.00;0.62;0.00;0.00;0.62;1.97;1.00;;;23.90;29.30;;;;;;2229916;62;20361;-63
2022/07/15 09:08:34;0.00;0.00;0.62;0.00;0.00;0.62;2.90;1.20;;;24.00;29.40;;;;;;2230245;62;20407;-63
2022/07/15 09:11:27;0.00;0.00;0.62;0.00;0.00;0.62;1.40;0.80;;;24.00;29.30;;;;;;2229436;62;20728;-63
2022/07/15 09:14:14;0.00;0.00;0.62;0.00;0.00;0.62;3.03;1.30;;;24.00;29.10;;;;;;2229972;62;20393;-63
2022/07/15 09:17:18;0.00;0.00;0.62;0.00;0.00;0.62;1.40;0.73;;;24.10;28.90;;;;;;2230222;62;20393;-61
2022/07/15 09:20:08;0.00;0.00;0.62;0.00;0.00;0.62;1.80;1.10;;;24.10;28.80;;;;;;2230016;62;20385;-63
2022/07/15 09:22:57;0.00;0.00;0.62;0.00;0.00;0.62;2.57;1.33;;;24.10;28.90;;;;;;2230256;62;20382;-63
2022/07/15 09:25:44;0.00;0.00;0.62;0.00;0.00;0.62;2.00;1.00;;;24.10;28.70;;;;;;2229049;62;20629;-63
2022/07/15 09:28:40;0.00;0.00;0.62;0.00;0.00;0.62;2.80;1.50;;;24.20;28.60;;;;;;2229741;62;20382;-62
2022/07/15 09:35:01;0.00;0.00;0.62;0.00;0.00;0.62;3.83;1.20;;;24.20;28.70;;;;;;2229671;62;20620;-62
2022/07/15 09:37:55;0.00;0.00;0.62;0.00;0.00;0.62;2.37;1.00;;;24.20;28.60;;;;;;2230077;62;20610;-62
2022/07/15 09:40:48;0.00;0.00;0.62;0.00;0.00;0.62;3.17;1.20;;;24.20;28.60;;;;;;2229383;62;20409;-62
2022/07/15 09:43:46;0.00;0.00;0.62;0.00;0.00;0.62;2.17;0.90;;;24.20;28.50;;;;;;2229888;62;20369;-61
2022/07/15 09:46:43;0.00;0.00;0.62;0.00;0.00;0.62;3.93;1.03;;;24.20;28.50;;;;;;2230078;62;20467;-62
2022/07/15 09:49:34;0.00;0.00;0.62;0.00;0.00;0.62;1.90;0.80;;;24.30;28.40;;;;;;2230050;62;20361;-62
2022/07/15 09:52:21;0.00;0.00;0.62;0.00;0.00;0.62;4.30;1.10;;;24.30;28.40;;;;;;2229845;62;20368;-62
2022/07/15 09:55:07;0.00;0.00;0.62;0.00;0.00;0.62;1.57;0.80;;;24.30;28.30;;;;;;2229459;62;20782;-62
2022/07/15 09:57:52;0.00;0.00;0.62;0.00;0.00;0.62;2.17;1.03;;;24.30;28.30;;;;;;2229719;62;20778;-61
2022/07/15 10:00:38;0.00;0.00;0.62;0.00;0.00;0.62;2.77;1.10;;;24.40;28.30;;;;;;2229952;62;20388;-62
2022/07/15 10:03:24;0.00;0.00;0.62;0.00;0.00;0.62;3.20;1.10;;;24.30;28.30;;;;;;2229504;62;20714;-62
2022/07/15 10:06:13;0.00;0.00;0.62;0.00;0.00;0.62;2.17;1.00;;;24.30;28.00;;;;;;2229664;62;20373;-62
2022/07/15 10:08:59;0.00;0.00;0.62;0.00;0.00;0.62;2.17;0.80;;;24.40;27.90;;;;;;2229978;62;20406;-62
2022/07/15 10:11:51;0.00;0.00;0.62;0.00;0.00;0.62;2.40;1.03;;;24.40;28.00;;;;;;2230168;62;20507;-62
2022/07/15 10:15:03;0.00;0.00;0.62;0.00;0.00;0.62;1.87;1.07;;;24.40;27.90;;;;;;2229733;62;20809;-63
2022/07/15 10:18:01;0.00;0.00;0.62;0.00;0.00;0.62;4.40;0.90;;;24.40;28.50;;;;;;2229232;62;20413;-63
2022/07/15 10:21:24;0.00;0.00;0.62;0.00;0.00;0.62;1.77;1.10;;;24.40;28.00;;;;;;2229576;62;20389;-63
2022/07/15 10:24:44;0.00;0.00;0.62;0.00;0.00;0.62;2.80;1.00;;;24.40;28.00;;;;;;2225159;62;20386;-62
2022/07/15 10:27:51;0.00;0.00;0.62;0.00;0.00;0.62;2.13;0.90;;;24.40;28.00;;;;;;2229577;62;20442;-62
2022/07/15 10:30:39;0.00;0.00;0.62;0.00;0.00;0.62;4.90;1.40;;;24.40;28.00;;;;;;2229920;62;20383;-62
2022/07/15 10:33:24;0.00;0.00;0.62;0.00;0.00;0.62;2.67;0.90;;;24.40;28.10;;;;;;2229091;62;20471;-62
2022/07/15 10:36:09;0.00;0.00;0.62;0.00;0.00;0.62;1.90;1.07;;;24.40;28.10;;;;;;2229644;62;20373;-62
2022/07/15 10:39:03;0.00;0.00;0.62;0.00;0.00;0.62;2.00;1.10;;;24.40;28.00;;;;;;2229233;62;20422;-62
2022/07/15 10:41:52;0.00;0.00;0.62;0.00;0.00;0.62;2.53;1.30;;;24.40;28.10;;;;;;2230020;62;20437;-62
2022/07/15 10:45:02;0.00;0.00;0.62;0.00;0.00;0.62;2.70;1.40;;;24.50;28.00;;;;;;2229986;62;20669;-62
2022/07/15 10:47:47;0.00;0.00;0.62;0.00;0.00;0.62;3.30;1.13;;;24.40;28.00;;;;;;2229196;62;20368;-62
2022/07/15 10:50:37;0.00;0.00;0.62;0.00;0.00;0.62;2.97;1.47;;;24.50;27.90;;;;;;2229560;62;20465;-62
2022/07/15 10:53:27;0.00;0.00;0.62;0.00;0.00;0.62;1.40;1.00;;;24.50;28.00;;;;;;2230010;62;20426;-62
2022/07/15 10:56:29;0.00;0.00;0.62;0.00;0.00;0.62;2.60;1.30;;;24.50;28.00;;;;;;2230067;62;20433;-62
2022/07/15 10:59:19;0.00;0.00;0.62;0.00;0.00;0.62;2.87;1.27;;;24.50;28.00;;;;;;2229921;62;20373;-62
2022/07/15 11:02:13;0.00;0.00;0.62;0.00;0.00;0.62;1.80;1.03;;;24.50;28.00;;;;;;2229215;62;20437;-62
2022/07/15 11:05:20;0.00;0.00;0.62;0.00;0.00;0.62;2.00;1.00;;;24.50;28.00;;;;;;2229631;62;20773;-62